createdAt,value
2022-08-09T00:01:52.867Z,65.17
2022-08-09T00:05:03.711Z,65.41
2022-08-09T00:08:32.913Z,67.49
2022-08-09T00:12:03.516Z,68.87
2022-08-09T00:15:06.293Z,69.36
2022-08-09T00:18:11.216Z,69.89
2022-08-09T00:21:14.413Z,70.85
2022-08-09T00:24:19.836Z,70.85
2022-08-09T00:27:22.129Z,71.08
2022-08-09T00:30:26.800Z,71.58
2022-08-09T00:33:49.203Z,71.08
2022-08-09T00:36:52.065Z,70.85
2022-08-09T00:40:12.839Z,70.66
2022-08-09T00:44:10.445Z,70.16
2022-08-09T00:46:56.476Z,69.41
2022-08-09T00:50:01.559Z,69.51
2022-08-09T00:53:10.563Z,70.89
2022-08-09T00:56:15.907Z,71.64
2022-08-09T00:59:20.227Z,71.97
2022-08-09T01:02:47.823Z,71.45
2022-08-09T01:06:18.655Z,72.48
2022-08-09T01:09:36.783Z,73.30
2022-08-09T01:12:47.543Z,73.58
2022-08-09T01:15:56.512Z,74.97
2022-08-09T01:19:04.700Z,75.20
2022-08-09T01:22:33.506Z,75.30
2022-08-09T01:25:48.640Z,74.50
2022-08-09T01:28:56.251Z,73.42
2022-08-09T01:32:30.029Z,72.91
2022-08-09T01:35:51.868Z,71.94
2022-08-09T01:38:55.555Z,72.57
2022-08-09T01:42:02.250Z,73.18
2022-08-09T01:45:10.735Z,73.37
2022-08-09T01:48:16.451Z,73.98
2022-08-09T01:51:23.022Z,74.80
2022-08-09T01:54:32.777Z,75.49
2022-08-09T01:57:40.388Z,76.47
2022-08-09T02:00:50.572Z,76.25
2022-08-09T02:03:56.272Z,76.44
2022-08-09T02:07:17.884Z,76.65
2022-08-09T02:10:35.528Z,77.00
2022-08-09T02:13:40.728Z,77.78
2022-08-09T02:16:58.984Z,76.55
2022-08-09T02:20:02.543Z,76.77
2022-08-09T02:23:17.816Z,77.21
2022-08-09T02:26:27.128Z,76.40
2022-08-09T02:29:38.229Z,75.77
2022-08-09T02:32:45.620Z,75.50
2022-08-09T02:36:03.467Z,75.40
2022-08-09T02:39:14.571Z,75.18
2022-08-09T02:42:29.135Z,75.65
2022-08-09T02:45:35.085Z,75.54
2022-08-09T02:48:39.115Z,75.30
2022-08-09T02:51:54.391Z,75.56
2022-08-09T02:54:58.814Z,76.92
2022-08-09T02:58:35.967Z,77.21
2022-08-09T03:01:43.124Z,78.14
2022-08-09T03:04:57.343Z,78.92
2022-08-09T03:08:05.286Z,78.97
2022-08-09T03:11:10.413Z,79.44
2022-08-09T03:14:14.066Z,80.29
2022-08-09T03:17:26.439Z,80.55
2022-08-09T03:20:30.050Z,81.18
2022-08-09T03:23:32.492Z,80.89
2022-08-09T03:26:37.435Z,81.34
2022-08-09T03:30:01.257Z,81.31
2022-08-09T03:33:17.584Z,81.22
2022-08-09T03:36:27.294Z,80.48
2022-08-09T03:39:38.126Z,79.95
2022-08-09T03:42:43.057Z,79.80
2022-08-09T03:46:05.177Z,79.99
2022-08-09T03:49:09.648Z,79.65
2022-08-09T03:52:14.699Z,79.87
2022-08-09T03:55:21.226Z,79.88
2022-08-09T03:58:26.033Z,79.74
2022-08-09T04:01:28.904Z,79.58
2022-08-09T04:04:36.230Z,80.08
2022-08-09T04:07:52.701Z,79.14
2022-08-09T04:11:01.268Z,79.49
2022-08-09T04:14:54.085Z,78.53
2022-08-09T04:17:27.073Z,78.71
2022-08-09T04:20:32.688Z,78.28
2022-08-09T04:23:35.226Z,78.53
2022-08-09T04:26:38.137Z,77.96
2022-08-09T04:29:40.759Z,78.08
2022-08-09T04:32:52.881Z,77.46
2022-08-09T04:35:56.717Z,72.08
2022-08-09T04:39:05.279Z,64.85
2022-08-09T04:42:09.338Z,59.67
2022-08-09T04:45:11.733Z,54.58
2022-08-09T04:48:15.585Z,50.59
2022-08-09T04:51:17.710Z,47.82
2022-08-09T04:54:22.711Z,45.92
2022-08-09T04:57:26.197Z,45.03
2022-08-09T05:00:31.815Z,43.65
2022-08-09T05:03:42.649Z,41.38
2022-08-09T05:06:46.233Z,38.78
2022-08-09T05:09:52.783Z,37.35
2022-08-09T05:12:55.351Z,35.69
2022-08-09T05:15:57.473Z,34.78
2022-08-09T05:19:00.638Z,33.81
2022-08-09T05:22:04.597Z,32.90
2022-08-09T05:25:07.485Z,32.41
2022-08-09T05:28:11.305Z,31.48
2022-08-09T05:31:15.747Z,30.29
2022-08-09T05:34:37.936Z,29.11
2022-08-09T05:37:47.524Z,27.92
2022-08-09T05:40:50.813Z,28.15
2022-08-09T05:43:53.430Z,27.42
2022-08-09T05:46:55.612Z,27.13
2022-08-09T05:50:31.137Z,27.31
2022-08-09T05:53:21.698Z,30.32
2022-08-09T05:56:34.531Z,30.54
2022-08-09T05:59:37.411Z,29.29
2022-08-09T06:02:46.336Z,28.36
2022-08-09T06:05:54.739Z,27.13
2022-08-09T06:09:10.054Z,28.27
2022-08-09T06:12:29.783Z,26.65
2022-08-09T06:15:31.935Z,26.21
2022-08-09T06:18:35.288Z,24.98
2022-08-09T06:21:39.733Z,24.24
2022-08-09T06:24:54.152Z,23.86
2022-08-09T06:27:56.383Z,22.91
2022-08-09T06:30:59.381Z,21.59
2022-08-09T06:34:05.960Z,21.95
2022-08-09T06:37:10.284Z,21.19
2022-08-09T06:40:20.280Z,20.51
2022-08-09T06:43:26.328Z,21.10
2022-08-09T06:46:40.147Z,19.74
2022-08-09T06:50:12.663Z,19.15
2022-08-09T06:53:06.054Z,19.14
2022-08-09T06:56:09.640Z,19.33
2022-08-09T07:00:51.496Z,19.51
2022-08-09T07:02:36.034Z,19.04
2022-08-09T07:05:53.741Z,18.59
2022-08-09T07:09:03.519Z,18.59
2022-08-09T07:12:06.479Z,17.69
2022-08-09T07:15:53.922Z,17.33
2022-08-09T07:18:39.021Z,18.02
2022-08-09T07:21:55.491Z,17.78
2022-08-09T07:25:00.205Z,18.14
2022-08-09T07:28:04.370Z,18.45
2022-08-09T07:31:06.728Z,18.59
2022-08-09T07:34:19.540Z,18.56
2022-08-09T07:37:23.197Z,18.61
2022-08-09T07:40:33.716Z,18.61
2022-08-09T07:43:49.985Z,18.85
2022-08-09T07:46:58.744Z,19.08
2022-08-09T07:50:07.709Z,19.89
2022-08-09T07:53:11.210Z,20.30
2022-08-09T07:56:27.228Z,21.52
2022-08-09T07:59:45.763Z,22.56
2022-08-09T08:02:52.551Z,24.31
2022-08-09T08:05:58.234Z,25.46
2022-08-09T08:09:05.282Z,26.14
2022-08-09T08:12:28.326Z,27.39
2022-08-09T08:15:35.549Z,28.17
2022-08-09T08:18:40.344Z,28.76
2022-08-09T08:21:52.815Z,29.90
2022-08-09T08:24:57.446Z,31.61
2022-08-09T08:27:59.889Z,32.70
2022-08-09T08:31:10.460Z,32.86
2022-08-09T08:34:17.152Z,32.97
2022-08-09T08:37:25.036Z,32.86
2022-08-09T08:40:42.808Z,34.27
2022-08-09T08:43:52.195Z,33.95
2022-08-09T08:47:02.331Z,34.04
2022-08-09T08:50:08.485Z,33.90
2022-08-09T08:53:21.653Z,34.31
2022-08-09T08:56:28.423Z,34.89
2022-08-09T08:59:46.672Z,35.77
2022-08-09T09:02:52.825Z,35.67
2022-08-09T09:05:59.906Z,35.48
2022-08-09T09:09:06.877Z,34.55
2022-08-09T09:12:34.237Z,34.51
2022-08-09T09:15:38.726Z,34.37
2022-08-09T09:18:48.105Z,34.78
2022-08-09T09:22:04.276Z,34.67
2022-08-09T09:26:04.124Z,33.98
2022-08-09T09:29:01.959Z,35.32
2022-08-09T09:32:15.423Z,34.69
2022-08-09T09:35:33.209Z,35.38
2022-08-09T09:39:05.927Z,34.94
2022-08-09T09:42:24.960Z,35.41
2022-08-09T09:50:13.940Z,35.50
2022-08-09T09:53:04.046Z,35.52
2022-08-09T09:56:19.749Z,36.05
2022-08-09T09:59:35.377Z,35.53
2022-08-09T10:02:47.368Z,34.48
2022-08-09T10:06:04.572Z,34.74
2022-08-09T10:09:21.691Z,35.35
2022-08-09T10:12:32.515Z,35.23
2022-08-09T10:16:08.646Z,35.69
2022-08-09T10:19:10.893Z,34.65
2022-08-09T10:22:13.211Z,34.57
2022-08-09T10:25:16.426Z,33.03
2022-08-09T10:28:24.001Z,33.31
2022-08-09T10:34:55.248Z,33.22
2022-08-09T10:38:01.335Z,32.91
2022-08-09T10:41:05.702Z,32.48
2022-08-09T10:44:11.714Z,32.66
2022-08-09T10:48:16.332Z,32.29
2022-08-09T10:51:09.981Z,32.06
2022-08-09T10:54:13.911Z,32.01
2022-08-09T10:57:16.990Z,32.45
2022-08-09T11:03:06.547Z,32.18
2022-08-09T11:04:31.170Z,31.45
2022-08-09T11:07:56.808Z,31.61
2022-08-09T11:11:01.032Z,31.92
2022-08-09T11:14:31.902Z,32.32
2022-08-09T11:17:41.967Z,31.69
2022-08-09T11:20:49.821Z,31.70
2022-08-09T11:24:02.422Z,31.14
2022-08-09T11:28:04.670Z,30.96
2022-08-09T11:30:53.610Z,29.69
2022-08-09T11:33:58.212Z,29.61
2022-08-09T11:37:02.503Z,29.94
2022-08-09T11:40:13.299Z,28.64
2022-08-09T11:43:32.343Z,29.58
2022-08-09T11:46:55.162Z,29.74
2022-08-09T11:50:56.972Z,29.91
2022-08-09T11:53:58.835Z,29.48
2022-08-09T11:56:49.346Z,29.94
2022-08-09T11:59:52.497Z,30.10
2022-08-09T12:02:58.036Z,30.04
2022-08-09T12:06:09.559Z,30.40
2022-08-09T12:09:19.668Z,30.48
2022-08-09T12:12:28.869Z,30.73
2022-08-09T12:15:50.187Z,31.05
2022-08-09T12:18:55.508Z,31.43
2022-08-09T12:22:03.799Z,31.35
2022-08-09T12:25:15.481Z,31.61
2022-08-09T12:29:11.080Z,31.62
2022-08-09T12:32:01.837Z,31.51
2022-08-09T12:35:10.793Z,31.93
2022-08-09T12:38:38.295Z,31.81
2022-08-09T12:41:41.068Z,31.53
2022-08-09T12:44:52.005Z,31.64
2022-08-09T12:47:56.663Z,31.73
2022-08-09T12:51:00.482Z,31.64
2022-08-09T12:54:07.338Z,31.56
2022-08-09T12:57:09.833Z,31.93
2022-08-09T13:00:25.596Z,32.15
2022-08-09T13:03:53.899Z,32.53
2022-08-09T13:07:10.839Z,33.13
2022-08-09T13:10:13.661Z,32.84
2022-08-09T13:13:27.315Z,32.55
2022-08-09T13:16:52.578Z,32.90
2022-08-09T13:20:07.485Z,33.72
2022-08-09T13:24:17.507Z,33.81
2022-08-09T13:26:49.822Z,33.88
2022-08-09T13:30:02.704Z,34.44
2022-08-09T13:33:35.980Z,34.32
2022-08-09T13:36:50.488Z,35.03
2022-08-09T13:41:54.739Z,34.34
2022-08-09T13:43:15.706Z,34.44
2022-08-09T13:47:14.634Z,34.33
2022-08-09T13:49:57.220Z,34.21
2022-08-09T13:53:03.132Z,33.96
2022-08-09T13:56:06.280Z,33.56
2022-08-09T13:59:14.166Z,33.28
2022-08-09T14:02:25.785Z,33.15
2022-08-09T14:06:01.122Z,32.61
2022-08-09T14:08:51.102Z,32.73
2022-08-09T14:11:56.444Z,32.54
2022-08-09T14:14:59.792Z,32.48
2022-08-09T14:18:19.536Z,32.44
2022-08-09T14:21:24.253Z,32.23
2022-08-09T14:24:32.619Z,32.37
2022-08-09T14:27:37.130Z,32.40
2022-08-09T14:30:58.338Z,32.63
2022-08-09T14:34:00.492Z,33.16
2022-08-09T14:37:07.878Z,33.66
2022-08-09T14:40:10.785Z,33.26
2022-08-09T14:43:15.858Z,33.75
2022-08-09T14:46:54.310Z,34.10
2022-08-09T14:50:01.334Z,34.10
2022-08-09T14:53:11.483Z,34.62
2022-08-09T14:56:14.788Z,34.66
2022-08-09T14:59:17.249Z,34.54
2022-08-09T15:02:20.467Z,34.83
2022-08-09T15:05:23.439Z,34.52
2022-08-09T15:08:26.164Z,34.15
2022-08-09T15:11:33.048Z,34.06
2022-08-09T15:14:38.280Z,33.74
2022-08-09T15:17:41.584Z,33.79
2022-08-09T15:21:57.882Z,33.82
2022-08-09T15:24:12.855Z,33.98
2022-08-09T15:27:20.137Z,33.82
2022-08-09T15:30:56.598Z,34.36
2022-08-09T15:34:33.150Z,34.52
2022-08-09T15:37:37.710Z,34.21
2022-08-09T15:40:48.299Z,34.28
2022-08-09T15:43:50.961Z,34.71
2022-08-09T15:46:53.418Z,34.06
2022-08-09T15:50:03.641Z,34.31
2022-08-09T15:54:02.227Z,34.13
2022-08-09T15:56:31.356Z,34.36
2022-08-09T15:59:37.254Z,34.14
2022-08-09T16:02:40.067Z,34.08
2022-08-09T16:05:53.250Z,34.58
2022-08-09T16:09:00.992Z,34.36
2022-08-09T16:12:06.178Z,34.44
2022-08-09T16:16:11.973Z,35.41
2022-08-09T16:18:37.105Z,35.37
2022-08-09T16:21:51.895Z,35.89
2022-08-09T16:24:56.945Z,35.79
2022-08-09T16:28:01.772Z,36.11
2022-08-09T16:31:16.193Z,36.08
2022-08-09T16:34:18.740Z,36.40
2022-08-09T16:37:56.084Z,36.54
2022-08-09T16:40:48.473Z,36.83
2022-08-09T16:43:51.556Z,37.12
2022-08-09T16:46:55.540Z,37.05
2022-08-09T16:50:29.749Z,37.54
2022-08-09T16:53:32.531Z,37.22
2022-08-09T16:56:37.311Z,37.38
2022-08-09T16:59:57.849Z,37.71
2022-08-09T17:03:00.618Z,37.92
2022-08-09T17:06:28.519Z,38.72
2022-08-09T17:09:45.257Z,39.17
2022-08-09T17:12:49.208Z,39.36
2022-08-09T17:15:59.005Z,39.70
2022-08-09T17:19:03.144Z,40.00
2022-08-09T17:22:07.829Z,40.03
2022-08-09T17:25:12.936Z,40.37
2022-08-09T17:28:15.387Z,40.36
2022-08-09T17:31:20.294Z,40.47
2022-08-09T17:34:59.714Z,40.45
2022-08-09T17:38:11.496Z,40.48
2022-08-09T17:41:09.703Z,40.47
2022-08-09T17:44:38.892Z,40.68
2022-08-09T17:47:49.373Z,40.64
2022-08-09T17:50:59.281Z,40.84
2022-08-09T17:54:11.539Z,41.03
2022-08-09T17:58:02.347Z,41.18
2022-08-09T18:00:46.328Z,41.50
2022-08-09T18:03:54.570Z,41.67
2022-08-09T18:06:57.295Z,41.71
2022-08-09T18:10:04.771Z,42.19
2022-08-09T18:13:53.938Z,42.20
2022-08-09T18:16:32.143Z,42.32
2022-08-09T18:20:54.435Z,42.07
2022-08-09T18:22:57.137Z,42.12
2022-08-09T18:26:02.094Z,42.60
2022-08-09T18:30:42.691Z,42.72
2022-08-09T18:32:27.458Z,42.88
2022-08-09T18:35:58.795Z,43.03
2022-08-09T18:38:55.037Z,43.25
2022-08-09T18:42:05.398Z,43.32
2022-08-09T18:45:21.560Z,43.20
2022-08-09T18:48:34.094Z,43.32
2022-08-09T18:51:38.003Z,43.38
2022-08-09T18:54:49.522Z,38.68
2022-08-09T18:57:57.805Z,37.00
2022-08-09T19:01:00.842Z,36.96
2022-08-09T19:04:08.234Z,37.10
2022-08-09T19:07:11.474Z,36.97
2022-08-09T19:10:17.657Z,36.82
2022-08-09T19:13:22.890Z,36.39
2022-08-09T19:16:42.426Z,36.31
2022-08-09T19:19:52.469Z,36.62
2022-08-09T19:23:05.415Z,36.73
2022-08-09T19:26:09.007Z,36.14
2022-08-09T19:29:18.047Z,37.10
2022-08-09T19:32:25.693Z,37.43
2022-08-09T19:35:57.021Z,36.38
2022-08-09T19:38:54.381Z,36.75
2022-08-09T19:41:57.963Z,36.54
2022-08-09T19:45:00.392Z,37.16
2022-08-09T19:48:03.036Z,36.52
2022-08-09T19:51:05.805Z,35.71
2022-08-09T19:54:08.400Z,36.18
2022-08-09T19:57:12.171Z,35.48
2022-08-09T20:00:16.153Z,35.46
2022-08-09T20:04:17.150Z,35.63
2022-08-09T20:06:40.742Z,35.91
2022-08-09T20:09:46.006Z,35.66
2022-08-09T20:12:48.201Z,36.11
2022-08-09T20:16:37.682Z,35.94
2022-08-09T20:19:49.361Z,35.95
2022-08-09T20:22:37.995Z,35.98
2022-08-09T20:25:52.606Z,35.97
2022-08-09T20:28:55.967Z,36.21
2022-08-09T20:32:28.664Z,36.23
2022-08-09T20:35:24.331Z,36.44
2022-08-09T20:38:38.755Z,36.35
2022-08-09T20:41:49.250Z,36.62
2022-08-09T20:45:04.533Z,36.33
2022-08-09T20:48:13.842Z,36.08
2022-08-09T20:51:24.054Z,35.41
2022-08-09T20:54:26.574Z,35.88
2022-08-09T20:57:32.096Z,35.59
2022-08-09T21:00:36.134Z,35.73
2022-08-09T21:05:48.942Z,35.35
2022-08-09T21:07:14.096Z,35.20
2022-08-09T21:10:16.521Z,35.19
2022-08-09T21:13:19.019Z,35.32
2022-08-09T21:16:22.383Z,35.15
2022-08-09T21:20:19.212Z,35.17
2022-08-09T21:22:55.345Z,35.34
2022-08-09T21:26:00.100Z,35.49
2022-08-09T21:29:02.423Z,35.11
2022-08-09T21:32:15.354Z,35.02
2022-08-09T21:35:21.731Z,34.99
2022-08-09T21:38:30.995Z,35.09
2022-08-09T21:42:05.773Z,35.25
2022-08-09T21:44:57.183Z,35.26
2022-08-09T21:48:00.299Z,35.46
2022-08-09T21:51:02.743Z,35.59
2022-08-09T21:54:05.585Z,35.50
2022-08-09T21:57:37.121Z,35.61
2022-08-09T22:00:34.270Z,36.37
2022-08-09T22:03:36.843Z,36.20
2022-08-09T22:06:59.134Z,36.19
2022-08-09T22:10:06.537Z,36.15
2022-08-09T22:13:11.506Z,36.55
2022-08-09T22:16:14.902Z,36.96
2022-08-09T22:19:57.978Z,37.19
2022-08-09T22:22:40.345Z,37.50
2022-08-09T22:26:05.376Z,37.34
2022-08-09T22:29:09.512Z,37.88
2022-08-09T22:32:12.566Z,37.83
2022-08-09T22:36:02.261Z,37.93
2022-08-09T22:38:54.942Z,38.09
2022-08-09T22:41:57.619Z,37.95
2022-08-09T22:48:13.129Z,38.15
2022-08-09T22:48:36.094Z,38.04
2022-08-09T22:51:49.503Z,38.26
2022-08-09T22:54:58.941Z,38.39
2022-08-09T22:58:01.811Z,38.51
2022-08-09T23:01:07.450Z,38.10
2022-08-09T23:04:09.635Z,38.37
2022-08-09T23:08:09.411Z,38.59
2022-08-09T23:10:53.032Z,39.00
2022-08-09T23:13:55.453Z,39.20
2022-08-09T23:16:57.612Z,39.32
2022-08-09T23:20:06.225Z,39.39
2022-08-09T23:23:09.777Z,39.62
2022-08-09T23:26:12.186Z,39.98
2022-08-09T23:29:14.287Z,40.12
2022-08-09T23:32:16.767Z,40.32
2022-08-09T23:35:18.874Z,40.72
2022-08-09T23:38:21.857Z,40.60
2022-08-09T23:41:28.035Z,41.07
2022-08-09T23:44:31.843Z,40.89
2022-08-09T23:47:34.065Z,41.08
2022-08-09T23:50:36.671Z,41.38
2022-08-09T23:53:38.869Z,41.39
